Time;durP1;ratioP1;P1;durP2;ratioP2;P2;SDS_P1;SDS_P2;PMS_P1;PMS_P2;Temp;Humidity;BMP_temperature;BMP_pressure;BME280_temperature;BME280_humidity;BME280_pressure;Samples;Min_cycle;Max_cycle;Signal;HPM_P1;HPM_P2
2022/06/17 00:00:15;;;;;;;;;10.50;8.75;;;;;25.44;50.37;101599.81;5092861;27;57924;-58
2022/06/17 00:02:41;;;;;;;;;10.50;10.25;;;;;25.42;50.30;101600.91;5093272;27;45470;-58
2022/06/17 00:05:07;;;;;;;;;12.75;11.25;;;;;25.44;50.44;101590.94;5092482;27;74117;-58
2022/06/17 00:07:32;;;;;;;;;9.50;8.50;;;;;25.43;50.23;101592.75;5093617;27;46948;-57
2022/06/17 00:09:58;;;;;;;;;11.25;10.00;;;;;25.43;50.10;101586.53;5102685;27;45349;-58
2022/06/17 00:12:23;;;;;;;;;10.75;10.75;;;;;25.42;50.11;101582.16;5108781;27;63750;-57
2022/06/17 00:17:32;;;;;;;;;11.25;10.00;;;;;25.42;50.24;101584.84;5103160;27;45881;-57
2022/06/17 00:19:59;;;;;;;;;14.75;10.75;;;;;25.41;49.87;101583.13;5105827;27;45857;-57
2022/06/17 00:22:25;;;;;;;;;10.50;10.00;;;;;25.40;50.38;101582.28;5104743;27;45490;-56
2022/06/17 00:24:52;;;;;;;;;11.75;10.00;;;;;25.41;50.10;101585.78;5113408;27;45496;-56
2022/06/17 00:27:17;;;;;;;;;12.00;10.00;;;;;25.41;50.13;101581.31;5112840;27;45974;-55
2022/06/17 00:29:43;;;;;;;;;8.75;8.75;;;;;25.41;50.02;101584.00;5098124;27;45400;-56
2022/06/17 00:32:08;;;;;;;;;9.25;9.25;;;;;25.40;49.88;101582.28;5105050;27;68418;-56
2022/06/17 00:34:33;;;;;;;;;13.25;11.25;;;;;25.40;49.72;101582.28;5105507;27;72582;-56
2022/06/17 00:37:01;;;;;;;;;9.25;9.25;;;;;25.39;49.66;101586.78;5104464;27;61723;-56
2022/06/17 00:39:29;;;;;;;;;14.00;11.00;;;;;25.41;49.67;101588.47;5104860;27;45742;-57
2022/06/17 00:41:59;;;;;;;;;9.75;9.50;;;;;25.38;49.67;101584.22;5114191;27;45449;-57
2022/06/17 00:44:41;;;;;;;;;9.50;8.00;;;;;25.39;49.76;101588.59;5109090;27;45519;-58
2022/06/17 00:47:37;;;;;;;;;11.25;10.00;;;;;25.39;49.94;101586.78;5106947;27;46246;-57
2022/06/17 00:50:23;;;;;;;;;9.25;9.25;;;;;25.37;49.56;101575.34;5101280;27;45950;-58
2022/06/17 00:52:52;;;;;;;;;10.25;9.50;;;;;25.38;49.39;101581.53;5106428;27;45386;-58
2022/06/17 00:55:24;;;;;;;;;11.00;11.00;;;;;25.38;49.59;101584.22;5102981;27;45595;-58
2022/06/17 00:57:50;;;;;;;;;10.75;10.75;;;;;25.37;49.47;101586.06;5105395;27;46083;-58
2022/06/17 01:00:21;;;;;;;;;10.25;9.00;;;;;25.38;49.63;101584.22;5104903;27;70832;-57
2022/06/17 01:03:06;;;;;;;;;11.75;11.00;;;;;25.37;49.51;101585.19;5102924;27;45417;-57
2022/06/17 01:05:49;;;;;;;;;11.00;10.50;;;;;25.37;49.67;101586.06;5102825;27;45405;-58
2022/06/17 01:11:11;;;;;;;;;12.00;9.00;;;;;25.35;49.31;101589.81;5107551;27;45466;-58
2022/06/17 01:13:37;;;;;;;;;12.00;11.00;;;;;25.34;49.24;101590.78;5108905;27;45368;-57
2022/06/17 01:16:04;;;;;;;;;11.00;10.25;;;;;25.35;49.35;101595.16;5110665;27;45223;-58
2022/06/17 01:18:31;;;;;;;;;11.00;10.75;;;;;25.35;49.43;101600.53;5103022;27;45554;-58
2022/06/17 01:20:59;;;;;;;;;12.50;10.75;;;;;25.36;49.16;101596.88;5098779;27;45373;-58
2022/06/17 01:23:25;;;;;;;;;8.75;8.50;;;;;25.33;49.14;101595.28;5099552;27;45318;-58
2022/06/17 01:25:50;;;;;;;;;10.50;10.00;;;;;25.35;49.27;101600.53;5089161;27;71335;-57
2022/06/17 01:28:17;;;;;;;;;12.75;10.00;;;;;25.33;48.89;101595.28;5106616;27;45895;-57
2022/06/17 01:30:51;;;;;;;;;10.75;10.75;;;;;25.34;49.19;101601.50;5102662;27;45516;-57
2022/06/17 01:33:46;;;;;;;;;10.75;10.50;;;;;25.32;49.30;101593.59;5103795;27;45244;-58
2022/06/17 01:36:14;;;;;;;;;10.25;9.50;;;;;25.33;48.66;101597.94;5105386;27;45454;-56
2022/06/17 01:38:42;;;;;;;;;11.75;9.25;;;;;25.32;48.63;101606.97;5101992;27;46351;-56
2022/06/17 01:41:08;;;;;;;;;12.75;10.75;;;;;25.32;48.73;101603.41;5107038;27;45878;-56
2022/06/17 01:43:52;;;;;;;;;13.50;10.75;;;;;25.33;48.72;101600.63;5103763;27;45397;-56
2022/06/17 01:46:21;;;;;;;;;12.75;11.00;;;;;25.30;48.67;101594.66;5108391;27;45426;-56
2022/06/17 01:48:53;;;;;;;;;10.50;10.50;;;;;25.32;48.66;101601.63;5104571;27;46467;-56
2022/06/17 01:51:20;;;;;;;;;14.50;12.25;;;;;25.31;48.52;101613.28;5107526;27;45306;-56
2022/06/17 01:53:49;;;;;;;;;12.25;9.25;;;;;25.32;48.69;101614.13;5104268;27;45626;-56
2022/06/17 01:56:18;;;;;;;;;10.50;10.00;;;;;25.32;48.55;101620.38;5103764;27;45488;-56
2022/06/17 01:58:49;;;;;;;;;10.50;10.50;;;;;25.31;48.62;101631.22;5104454;27;47448;-56
2022/06/17 02:01:16;;;;;;;;;11.50;11.25;;;;;25.31;48.61;101625.84;5103196;27;45450;-56
2022/06/17 02:03:46;;;;;;;;;9.50;8.75;;;;;25.33;48.71;101629.25;5101836;27;45635;-56
2022/06/17 02:06:21;;;;;;;;;12.25;10.50;;;;;25.32;48.38;101622.19;5111468;27;45450;-56
2022/06/17 02:08:47;;;;;;;;;14.75;11.50;;;;;25.31;48.38;101626.69;5110630;27;45609;-55
2022/06/17 02:11:13;;;;;;;;;10.75;10.75;;;;;25.32;48.33;101630.22;5108157;27;45479;-58
2022/06/17 02:13:39;;;;;;;;;15.00;12.25;;;;;25.32;48.26;101636.44;5098236;27;45409;-56
2022/06/17 02:16:05;;;;;;;;;15.50;11.25;;;;;25.32;48.40;101639.13;5104330;27;45679;-56
2022/06/17 02:18:31;;;;;;;;;13.50;12.25;;;;;25.33;48.54;101640.81;5107814;27;47429;-56
2022/06/17 02:20:59;;;;;;;;;12.25;10.75;;;;;25.33;48.46;101642.66;5103107;27;45445;-56
2022/06/17 02:23:26;;;;;;;;;9.75;9.75;;;;;25.34;48.17;101639.88;5125285;27;45470;-56
2022/06/17 02:25:52;;;;;;;;;14.00;12.75;;;;;25.33;48.13;101639.97;5106701;27;45543;-56
2022/06/17 02:28:18;;;;;;;;;13.75;12.00;;;;;25.33;48.22;101648.03;5106800;27;45422;-56
2022/06/17 02:30:47;;;;;;;;;9.50;9.50;;;;;25.34;47.98;101647.91;5102491;27;45829;-55
2022/06/17 02:33:13;;;;;;;;;11.75;10.75;;;;;25.33;48.29;101654.22;5111382;27;45908;-55
2022/06/17 02:35:50;;;;;;;;;11.00;10.75;;;;;25.35;48.31;101656.78;5100162;27;68423;-56
2022/06/17 02:38:18;;;;;;;;;11.00;10.25;;;;;25.35;47.84;101648.75;5109554;27;45684;-56
2022/06/17 02:40:47;;;;;;;;;10.75;10.75;;;;;25.34;48.28;101642.53;5108946;27;45933;-55
2022/06/17 02:43:19;;;;;;;;;13.75;10.00;;;;;25.33;47.80;101646.19;5106610;27;45437;-56
2022/06/17 02:45:48;;;;;;;;;12.50;10.50;;;;;25.34;48.05;101644.38;5116791;27;45509;-56
2022/06/17 02:48:19;;;;;;;;;14.00;10.50;;;;;25.35;47.78;101649.59;5105986;27;46126;-55
2022/06/17 02:50:45;;;;;;;;;13.50;10.75;;;;;25.35;47.74;101651.44;5106818;27;45814;-55
2022/06/17 02:53:10;;;;;;;;;11.00;11.00;;;;;25.34;47.51;101655.09;5111195;27;50442;-56
2022/06/17 02:55:39;;;;;;;;;14.25;11.00;;;;;25.33;47.54;101654.22;5102566;27;70163;-55
2022/06/17 02:58:27;;;;;;;;;11.75;10.00;;;;;25.33;47.78;101654.22;5108391;27;47070;-55
2022/06/17 03:00:53;;;;;;;;;14.00;10.25;;;;;25.34;47.56;101655.09;5106457;27;45405;-55
2022/06/17 03:03:20;;;;;;;;;12.00;12.00;;;;;25.33;47.80;101648.03;5109554;27;51056;-56
2022/06/17 03:05:46;;;;;;;;;10.25;10.25;;;;;25.33;47.45;101645.34;5103536;27;71096;-56
2022/06/17 03:08:24;;;;;;;;;11.00;10.75;;;;;25.32;47.34;101648.97;5103562;27;53976;-56
2022/06/17 03:10:52;;;;;;;;;16.50;10.25;;;;;25.31;47.28;101649.97;5107372;27;45318;-56
2022/06/17 03:13:40;;;;;;;;;11.50;10.75;;;;;25.32;47.44;101647.16;5106113;27;45495;-57
2022/06/17 03:16:10;;;;;;;;;9.25;9.25;;;;;25.31;47.19;101642.78;5104355;27;45429;-55
2022/06/17 03:18:36;;;;;;;;;11.00;11.00;;;;;25.32;47.17;101636.44;5108611;27;45420;-56
2022/06/17 03:21:02;;;;;;;;;10.75;10.75;;;;;25.31;47.29;101626.69;5103074;27;47149;-56
2022/06/17 03:24:12;;;;;;;;;13.00;10.25;;;;;25.31;47.35;101636.56;5108211;27;45778;-56
2022/06/17 03:26:44;;;;;;;;;13.00;13.00;;;;;25.30;47.08;101624.13;5106585;27;45568;-55
2022/06/17 03:29:11;;;;;;;;;13.00;11.50;;;;;25.30;46.97;101629.47;5106973;27;46502;-56
2022/06/17 03:32:27;;;;;;;;;11.25;10.25;;;;;25.28;46.91;101628.75;5103515;27;61622;-56
2022/06/17 03:34:54;;;;;;;;;8.50;8.25;;;;;25.28;47.17;101621.56;5095261;27;45483;-56
2022/06/17 03:37:33;;;;;;;;;11.50;10.50;;;;;25.28;46.76;101626.06;5101826;27;45365;-56
2022/06/17 03:40:03;;;;;;;;;13.25;12.50;;;;;25.28;47.13;101618.03;5107262;27;45207;-55
2022/06/17 03:42:33;;;;;;;;;12.50;11.00;;;;;25.27;46.93;101609.16;5109231;27;45870;-56
2022/06/17 03:45:24;;;;;;;;;9.75;8.75;;;;;25.26;47.09;101595.88;5103719;27;45180;-56
2022/06/17 03:47:57;;;;;;;;;14.75;11.25;;;;;25.26;46.85;101591.34;5099893;27;46223;-55
2022/06/17 03:50:29;;;;;;;;;11.75;11.25;;;;;25.25;46.87;101600.38;5101010;27;45621;-56
2022/06/17 03:53:00;;;;;;;;;12.75;11.25;;;;;25.25;46.65;101623.63;5112160;27;45426;-56
2022/06/17 03:55:26;;;;;;;;;10.75;10.75;;;;;25.25;46.52;101640.56;5110703;27;45289;-56
2022/06/17 03:57:54;;;;;;;;;11.25;10.00;;;;;25.25;46.52;101642.38;5099072;27;45516;-56
2022/06/17 04:00:24;;;;;;;;;9.50;9.25;;;;;25.24;46.55;101649.53;5101996;27;46228;-56
2022/06/17 04:02:51;;;;;;;;;10.50;10.25;;;;;25.23;46.30;101647.81;5111547;27;45267;-56
2022/06/17 04:05:16;;;;;;;;;10.00;9.75;;;;;25.23;46.01;101649.63;5109302;27;59508;-56
2022/06/17 04:07:42;;;;;;;;;12.75;11.00;;;;;25.23;46.46;101660.34;5110441;27;45335;-56
2022/06/17 04:10:12;;;;;;;;;10.00;10.00;;;;;25.22;46.56;101651.47;5103687;27;45508;-56
2022/06/17 04:12:38;;;;;;;;;10.00;9.25;;;;;25.23;46.29;101646.97;5103423;27;45801;-55
2022/06/17 04:15:26;;;;;;;;;10.75;10.75;;;;;25.22;46.29;101643.44;5109271;27;45452;-56
2022/06/17 04:17:53;;;;;;;;;12.75;9.25;;;;;25.22;45.69;101653.31;5103659;27;45371;-56
2022/06/17 04:20:50;;;;;;;;;10.75;10.25;;;;;25.22;46.14;101648.78;5104997;27;46268;-56
2022/06/17 04:23:39;;;;;;;;;10.50;9.00;;;;;25.20;46.07;101638.19;5101963;27;45932;-57
2022/06/17 04:26:29;;;;;;;;;9.50;9.50;;;;;25.20;45.94;101640.88;5108502;27;45477;-56
2022/06/17 04:28:59;;;;;;;;;12.50;11.75;;;;;25.22;45.84;101647.94;5111454;27;45424;-56
2022/06/17 04:31:27;;;;;;;;;9.75;9.75;;;;;25.20;45.91;101642.69;5101435;27;45276;-56
2022/06/17 04:34:15;;;;;;;;;8.25;8.25;;;;;25.20;45.84;101642.69;5104706;27;45788;-57
2022/06/17 04:36:52;;;;;;;;;10.75;9.25;;;;;25.19;45.64;101644.50;5101221;27;45441;-57
2022/06/17 04:39:21;;;;;;;;;11.75;7.00;;;;;25.20;45.59;101640.03;5112380;27;45495;-57
2022/06/17 04:41:49;;;;;;;;;8.25;8.25;;;;;25.20;45.73;101634.66;5098949;27;46198;-56
2022/06/17 04:44:14;;;;;;;;;7.75;7.75;;;;;25.20;45.66;101648.06;5102596;27;45487;-56
2022/06/17 04:47:20;;;;;;;;;10.50;8.25;;;;;25.19;45.66;101646.34;5104819;27;45388;-57
2022/06/17 04:50:09;;;;;;;;;11.75;7.50;;;;;25.19;45.44;101651.69;5043958;28;45864;-58
2022/06/17 04:52:38;;;;;;;;;9.00;8.25;;;;;25.18;45.13;101653.53;5044813;28;45689;-57
2022/06/17 04:55:06;;;;;;;;;9.25;9.25;;;;;25.19;45.26;101651.69;5091101;27;45456;-57
2022/06/17 04:57:31;;;;;;;;;8.00;7.75;;;;;25.17;45.65;101650.94;5103621;27;45358;-56
2022/06/17 05:00:01;;;;;;;;;7.50;7.50;;;;;25.18;45.18;101656.19;5110689;27;45545;-56
2022/06/17 05:02:29;;;;;;;;;9.00;8.75;;;;;25.19;45.25;101657.06;5107037;27;45384;-56
2022/06/17 05:05:02;;;;;;;;;8.00;8.00;;;;;25.19;45.43;101657.88;5106472;27;45353;-56
2022/06/17 05:07:31;;;;;;;;;7.75;7.25;;;;;25.19;45.48;101655.22;5108488;27;45499;-56
2022/06/17 05:10:08;;;;;;;;;10.25;9.00;;;;;25.19;44.95;101657.88;5108895;27;45575;-57
2022/06/17 05:12:52;;;;;;;;;9.50;8.50;;;;;25.19;45.26;101652.53;5109167;27;45873;-56
2022/06/17 05:15:20;;;;;;;;;11.00;8.00;;;;;25.19;44.89;101649.84;5107789;27;45798;-56
2022/06/17 05:17:45;;;;;;;;;11.00;9.00;;;;;25.19;44.91;101641.81;5108618;27;45239;-55
2022/06/17 05:20:15;;;;;;;;;7.75;7.25;;;;;25.19;44.65;101646.34;5105705;27;45586;-55
2022/06/17 05:22:59;;;;;;;;;9.00;8.00;;;;;25.20;44.83;101645.38;5103196;27;45534;-55
2022/06/17 05:25:28;;;;;;;;;9.25;8.75;;;;;25.20;44.87;101640.03;5108948;27;45426;-56
2022/06/17 05:27:54;;;;;;;;;10.25;8.00;;;;;25.19;44.97;101639.13;5109010;27;45428;-56
2022/06/17 05:30:20;;;;;;;;;8.25;8.00;;;;;25.19;44.66;101630.25;5109529;27;45484;-56
2022/06/17 05:32:51;;;;;;;;;8.25;6.50;;;;;25.20;44.53;101631.97;5108983;27;46088;-57
2022/06/17 05:35:17;;;;;;;;;10.00;9.75;;;;;25.21;44.58;101628.31;5112672;27;45572;-57
2022/06/17 05:37:42;;;;;;;;;9.75;7.50;;;;;25.21;44.99;101622.97;5109061;27;45514;-57
2022/06/17 05:40:08;;;;;;;;;7.75;7.75;;;;;25.22;44.52;101621.16;5113085;27;76259;-57
2022/06/17 05:42:35;;;;;;;;;8.00;7.50;;;;;25.22;44.72;101619.31;5104912;27;45423;-57
2022/06/17 05:45:00;;;;;;;;;11.25;9.00;;;;;25.24;44.67;101622.75;5104028;27;45827;-56
2022/06/17 05:47:26;;;;;;;;;9.50;7.00;;;;;25.25;44.71;101620.94;5110114;27;45388;-57
2022/06/17 05:49:51;;;;;;;;;9.00;7.00;;;;;25.26;44.95;101618.16;5104693;27;71477;-56
2022/06/17 05:52:16;;;;;;;;;8.00;8.00;;;;;25.28;45.04;101626.06;5106515;27;66602;-57
2022/06/17 05:54:42;;;;;;;;;10.50;9.00;;;;;25.27;44.93;101622.53;5107792;27;45406;-57
2022/06/17 05:57:07;;;;;;;;;8.75;8.75;;;;;25.29;44.81;101630.47;5113654;27;45428;-57
2022/06/17 05:59:32;;;;;;;;;9.00;8.25;;;;;25.29;45.03;101625.13;5104580;27;45385;-57
2022/06/17 06:01:58;;;;;;;;;8.00;7.00;;;;;25.29;44.81;101617.91;5105723;27;47135;-57
2022/06/17 06:04:26;;;;;;;;;9.75;9.00;;;;;25.30;44.60;101638.41;5112108;27;45318;-57
2022/06/17 06:06:51;;;;;;;;;10.50;8.25;;;;;25.29;44.78;101634.00;5104894;27;45427;-57
2022/06/17 06:09:17;;;;;;;;;8.00;7.75;;;;;25.28;44.67;101632.28;5108376;27;45451;-57
2022/06/17 06:11:42;;;;;;;;;11.00;8.50;;;;;25.32;44.81;101636.44;5105703;27;73368;-57
2022/06/17 06:14:07;;;;;;;;;7.75;7.75;;;;;25.32;44.28;101639.13;5103297;27;45364;-58
2022/06/17 06:16:34;;;;;;;;;9.25;8.50;;;;;25.33;44.42;101634.63;5109149;27;54682;-56
2022/06/17 06:18:59;;;;;;;;;9.50;7.75;;;;;25.33;44.67;101626.59;5103433;27;45701;-57
2022/06/17 06:21:25;;;;;;;;;9.50;7.75;;;;;25.33;44.56;101614.03;5103538;27;69228;-57
2022/06/17 06:23:50;;;;;;;;;6.75;6.75;;;;;25.35;44.35;101620.13;5113909;27;45385;-56
2022/06/17 06:26:18;;;;;;;;;7.25;6.25;;;;;25.35;44.55;101612.09;5105708;27;45383;-54
2022/06/17 06:28:44;;;;;;;;;9.50;8.25;;;;;25.36;44.50;101607.59;5103708;27;45500;-57
2022/06/17 06:31:24;;;;;;;;;10.50;8.00;;;;;25.38;44.16;101608.34;5106741;27;47081;-55
2022/06/17 06:33:49;;;;;;;;;9.75;9.75;;;;;25.37;44.05;101607.50;5109769;27;45237;-57
2022/06/17 06:36:15;;;;;;;;;7.50;7.25;;;;;25.38;44.43;101593.09;5104066;27;45326;-56
2022/06/17 06:38:40;;;;;;;;;7.75;7.50;;;;;25.36;44.47;101587.00;5106725;27;45338;-56
2022/06/17 06:41:05;;;;;;;;;7.25;7.25;;;;;25.39;44.64;101585.91;5104439;27;73385;-55
2022/06/17 06:43:31;;;;;;;;;10.25;9.00;;;;;25.40;44.89;101598.34;5101339;27;55861;-55
2022/06/17 06:45:57;;;;;;;;;8.25;8.00;;;;;25.39;44.64;101596.63;5104488;27;45267;-55
2022/06/17 06:48:25;;;;;;;;;9.50;7.25;;;;;25.42;44.60;101601.75;5103681;27;68504;-54
2022/06/17 06:50:50;;;;;;;;;5.50;5.50;;;;;25.42;44.38;101609.81;5110516;27;46480;-55
2022/06/17 06:53:16;;;;;;;;;9.25;7.25;;;;;25.43;44.81;101607.97;5104577;27;45299;-54
2022/06/17 06:55:42;;;;;;;;;12.00;9.00;;;;;25.43;44.48;101603.47;5103380;27;45536;-55
2022/06/17 06:58:10;;;;;;;;;11.75;9.00;;;;;25.46;44.59;101602.38;5111437;27;45353;-54
2022/06/17 07:00:38;;;;;;;;;9.75;8.00;;;;;25.46;44.86;101594.34;5106171;27;45465;-54
2022/06/17 07:03:04;;;;;;;;;8.50;7.00;;;;;25.46;44.63;101597.03;5107337;27;45345;-55
2022/06/17 07:05:30;;;;;;;;;8.00;7.75;;;;;25.46;44.58;101599.69;5104449;27;45511;-52
2022/06/17 07:07:55;;;;;;;;;11.25;8.50;;;;;25.48;44.43;101612.03;5112406;27;45475;-55
2022/06/17 07:10:24;;;;;;;;;8.00;6.50;;;;;25.48;44.37;101614.72;5111722;27;46933;-55
2022/06/17 07:12:50;;;;;;;;;8.50;7.50;;;;;25.50;44.53;101617.28;5100876;27;45598;-56
2022/06/17 07:15:17;;;;;;;;;8.50;8.00;;;;;25.49;44.47;101619.06;5105897;27;45445;-55
2022/06/17 07:18:00;;;;;;;;;5.25;5.25;;;;;25.49;44.88;101621.75;5103202;27;46946;-55
2022/06/17 07:20:28;;;;;;;;;10.50;8.00;;;;;25.49;44.66;101624.44;5106788;27;46162;-55
2022/06/17 07:22:54;;;;;;;;;10.75;8.00;;;;;25.50;44.63;101619.97;5105940;27;45732;-54
2022/06/17 07:25:20;;;;;;;;;9.75;7.25;;;;;25.50;44.33;101620.81;5106454;27;45381;-54
2022/06/17 07:27:46;;;;;;;;;9.00;8.00;;;;;25.50;44.41;101625.31;5110695;27;46527;-55
2022/06/17 07:30:19;;;;;;;;;6.25;6.25;;;;;25.50;44.57;101618.13;5112542;27;46127;-54
2022/06/17 07:32:45;;;;;;;;;6.50;6.50;;;;;25.50;44.61;101618.13;5101528;27;45311;-56
2022/06/17 07:35:11;;;;;;;;;10.25;8.50;;;;;25.50;44.41;101615.44;5102891;27;45453;-55
2022/06/17 07:40:21;;;;;;;;;9.25;7.50;;;;;25.51;44.35;101624.31;5102021;27;45812;-56
2022/06/17 07:42:46;;;;;;;;;8.00;7.00;;;;;25.50;44.17;101630.69;5089786;27;45362;-56
2022/06/17 07:45:16;;;;;;;;;9.25;8.00;;;;;25.50;44.41;101644.91;5106148;27;67350;-54
2022/06/17 07:47:42;;;;;;;;;7.00;7.00;;;;;25.49;44.58;101645.88;5102987;27;45246;-54
2022/06/17 07:50:12;;;;;;;;;10.50;7.75;;;;;25.50;44.26;101652.97;5108908;27;45462;-55
2022/06/17 07:52:37;;;;;;;;;11.00;8.00;;;;;25.49;44.42;101656.59;5101546;27;45694;-54
2022/06/17 07:55:03;;;;;;;;;10.00;7.00;;;;;25.50;44.36;101661.00;5104544;27;45478;-55
2022/06/17 07:57:28;;;;;;;;;9.00;7.50;;;;;25.51;44.26;101662.69;5104791;27;46616;-55
2022/06/17 07:59:54;;;;;;;;;7.50;7.00;;;;;25.48;44.43;101665.63;5110004;27;45439;-55
2022/06/17 08:02:19;;;;;;;;;7.00;6.25;;;;;25.49;44.27;101669.16;5102650;27;45304;-56
2022/06/17 08:04:45;;;;;;;;;10.00;6.75;;;;;25.50;44.03;101670.88;5097148;27;45254;-54
2022/06/17 08:07:11;;;;;;;;;7.00;6.25;;;;;25.49;44.13;101675.34;5100714;27;62207;-56
2022/06/17 08:09:37;;;;;;;;;6.00;5.25;;;;;25.49;43.96;101680.72;5098397;27;75447;-55
2022/06/17 08:12:03;;;;;;;;;8.25;6.00;;;;;25.49;44.11;101672.69;5103052;27;45451;-56
2022/06/17 08:14:28;;;;;;;;;7.25;6.00;;;;;25.50;44.23;101674.41;5107467;27;45427;-56
2022/06/17 08:16:54;;;;;;;;;9.25;8.25;;;;;25.49;43.78;101675.34;5105112;27;45348;-54
2022/06/17 08:19:19;;;;;;;;;8.00;7.25;;;;;25.51;44.10;101678.78;5108117;27;46270;-55
2022/06/17 08:21:45;;;;;;;;;9.50;6.75;;;;;25.51;43.88;101677.94;5106726;27;45446;-53
2022/06/17 08:24:10;;;;;;;;;8.00;7.00;;;;;25.52;43.90;101677.81;5085607;27;45413;-54
2022/06/17 08:26:35;;;;;;;;;8.00;7.00;;;;;25.52;44.08;101677.81;5106828;27;48953;-54
2022/06/17 08:29:01;;;;;;;;;7.25;5.00;;;;;25.52;43.89;101669.78;5110131;27;45364;-54
2022/06/17 08:31:26;;;;;;;;;8.00;7.50;;;;;25.53;44.10;101666.13;5104625;27;64145;-55
2022/06/17 08:33:52;;;;;;;;;5.50;5.50;;;;;25.55;43.65;101660.63;5100184;27;45491;-55
2022/06/17 08:36:21;;;;;;;;;10.00;7.25;;;;;25.55;43.96;101655.28;5109834;27;75431;-53
2022/06/17 08:38:50;;;;;;;;;6.25;6.25;;;;;25.54;43.64;101659.78;5100902;27;47356;-54
2022/06/17 08:41:18;;;;;;;;;6.75;6.75;;;;;25.55;43.73;101656.16;5091091;27;45577;-55
2022/06/17 08:44:04;;;;;;;;;5.75;5.75;;;;;25.56;43.90;101657.84;5099976;27;45349;-54
2022/06/17 08:46:44;;;;;;;;;9.00;5.75;;;;;25.57;43.57;101658.72;5101134;27;45274;-55
2022/06/17 08:49:28;;;;;;;;;6.00;6.00;;;;;25.57;44.21;101648.84;5110899;27;46414;-54
2022/06/17 08:52:05;;;;;;;;;6.00;6.00;;;;;25.57;44.00;101651.53;5100383;27;45267;-54
2022/06/17 08:54:36;;;;;;;;;5.75;4.25;;;;;25.58;43.90;101647.00;5107861;27;45496;-55
2022/06/17 08:57:11;;;;;;;;;6.75;6.25;;;;;25.59;43.89;101646.06;5111715;27;45495;-56
2022/06/17 08:59:58;;;;;;;;;8.50;6.75;;;;;25.59;44.12;101640.69;5101458;27;46162;-56
2022/06/17 09:02:29;;;;;;;;;7.00;6.00;;;;;25.60;43.73;101637.00;5101132;27;45350;-54
2022/06/17 09:05:30;;;;;;;;;7.00;5.50;;;;;25.61;43.59;101645.94;5103561;27;45745;-55
2022/06/17 09:08:28;;;;;;;;;8.00;6.50;;;;;25.60;43.61;101652.25;5113149;27;45630;-54
2022/06/17 09:11:17;;;;;;;;;6.50;5.50;;;;;25.61;43.67;101630.69;5107821;27;46129;-55
2022/06/17 09:14:11;;;;;;;;;8.25;7.00;;;;;25.62;43.43;101637.78;5104526;27;46077;-54
2022/06/17 09:16:40;;;;;;;;;6.50;6.50;;;;;25.62;43.87;101637.78;5055239;27;45547;-55
2022/06/17 09:19:07;;;;;;;;;6.25;6.25;;;;;25.64;43.51;101635.84;5109697;27;46581;-54
2022/06/17 09:21:37;;;;;;;;;7.25;6.00;;;;;25.65;43.73;101634.00;5101481;27;45460;-55
2022/06/17 09:24:08;;;;;;;;;7.25;6.75;;;;;25.65;43.52;101634.00;5109632;27;45645;-55
2022/06/17 09:26:54;;;;;;;;;8.25;6.00;;;;;25.66;43.81;101636.56;5107739;27;45446;-54
2022/06/17 09:29:26;;;;;;;;;5.00;5.00;;;;;25.67;43.49;101632.91;5095828;27;46479;-54
2022/06/17 09:31:57;;;;;;;;;4.25;4.25;;;;;25.69;43.56;101633.66;5103958;27;46148;-51
2022/06/17 09:34:42;;;;;;;;;5.50;4.75;;;;;25.70;43.26;101621.94;5113459;27;45396;-54
2022/06/17 09:37:17;;;;;;;;;5.00;3.75;;;;;25.72;43.23;101625.34;5106264;27;45497;-54
2022/06/17 09:39:55;;;;;;;;;4.00;3.00;;;;;25.75;43.07;101630.50;5081034;27;45621;-54
2022/06/17 09:42:42;;;;;;;;;3.50;3.50;;;;;25.76;43.27;101634.00;5108995;27;47275;-54
2022/06/17 09:45:16;;;;;;;;;7.00;4.00;;;;;25.79;43.46;101627.56;5110665;27;46366;-54
2022/06/17 09:48:09;;;;;;;;;0.50;0.50;;;;;25.79;43.22;101623.06;5091261;27;45532;-51
2022/06/17 09:50:48;;;;;;;;;1.75;1.00;;;;;25.81;42.98;101622.94;5131030;27;45298;-54
2022/06/17 09:53:32;;;;;;;;;0.50;0.50;;;;;25.83;43.30;101629.03;5114955;27;45724;-52
2022/06/17 09:56:19;;;;;;;;;1.00;1.00;;;;;25.84;43.15;101622.72;5109220;27;45761;-54
2022/06/17 09:58:53;;;;;;;;;4.25;1.25;;;;;25.86;42.93;101621.59;5106077;27;45483;-51
2022/06/17 10:01:19;;;;;;;;;0.50;0.50;;;;;25.88;42.87;101621.50;5110938;27;45506;-52
2022/06/17 10:03:44;;;;;;;;;1.25;1.25;;;;;25.91;43.06;101627.47;5109693;27;74595;-52
2022/06/17 10:06:40;;;;;;;;;2.75;2.50;;;;;25.95;42.71;101630.81;5111391;27;45483;-51
2022/06/17 10:09:26;;;;;;;;;3.00;3.00;;;;;25.98;43.11;101616.31;5108108;27;45691;-53
2022/06/17 10:12:13;;;;;;;;;1.00;1.00;;;;;26.01;42.54;101624.97;5106929;27;45388;-51
2022/06/17 10:15:08;;;;;;;;;5.00;1.75;;;;;26.04;42.76;101627.38;5111159;27;45510;-50
2022/06/17 10:20:34;;;;;;;;;2.00;0.50;;;;;26.12;42.76;101618.75;5111968;27;45454;-50
2022/06/17 10:23:08;;;;;;;;;3.00;2.00;;;;;26.14;42.38;101617.66;5108607;27;45684;-51
2022/06/17 10:25:49;;;;;;;;;0.25;0.25;;;;;26.18;42.59;101620.94;5106656;27;45575;-48
2022/06/17 10:28:20;;;;;;;;;0.75;0.25;;;;;26.22;42.57;101614.34;5118423;27;45578;-52
2022/06/17 10:30:53;;;;;;;;;2.00;0.25;;;;;26.25;42.35;101602.53;5109576;27;45473;-53
2022/06/17 10:33:19;;;;;;;;;1.00;1.00;;;;;26.28;42.48;101605.81;5111774;27;45464;-50
2022/06/17 10:35:46;;;;;;;;;1.25;1.25;;;;;26.33;42.42;101605.47;5105002;27;45402;-50
2022/06/17 10:38:16;;;;;;;;;0.25;0.25;;;;;26.36;42.09;101604.34;5108569;27;45250;-54
2022/06/17 10:40:42;;;;;;;;;0.50;0.50;;;;;26.40;42.49;101612.03;5113650;27;45690;-52
2022/06/17 10:43:12;;;;;;;;;1.00;0.00;;;;;26.43;42.17;101608.25;5116137;27;62888;-48
2022/06/17 10:45:38;;;;;;;;;1.00;1.00;;;;;26.47;42.42;101599.84;5108609;27;46701;-52
2022/06/17 10:48:18;;;;;;;;;0.00;0.00;;;;;26.49;42.19;101608.63;5117551;27;45434;-54
2022/06/17 10:50:43;;;;;;;;;2.25;0.25;;;;;26.50;42.28;101602.25;5111032;27;45550;-51
2022/06/17 10:53:18;;;;;;;;;0.25;0.25;;;;;26.52;42.16;101607.50;5096165;27;68374;-53
2022/06/17 10:55:50;;;;;;;;;2.00;0.00;;;;;26.50;42.14;101610.31;5104514;27;46311;-54
2022/06/17 10:58:22;;;;;;;;;0.00;0.00;;;;;26.51;42.06;101614.72;5112750;27;45498;-52
2022/06/17 11:00:58;;;;;;;;;1.00;0.00;;;;;26.52;42.11;101610.19;5110537;27;45436;-54
2022/06/17 11:03:36;;;;;;;;;1.75;1.00;;;;;26.52;41.97;101611.06;5113710;27;45509;-52
2022/06/17 11:06:14;;;;;;;;;0.00;0.00;;;;;26.52;42.21;101610.19;5107516;27;45334;-53
2022/06/17 11:08:49;;;;;;;;;1.00;1.00;;;;;26.52;42.39;101612.88;5110077;27;45636;-53
2022/06/17 11:14:01;;;;;;;;;0.00;0.00;;;;;26.51;42.36;101605.81;5108350;27;45497;-54
2022/06/17 11:16:36;;;;;;;;;0.00;0.00;;;;;26.52;41.91;101605.69;5116150;27;46072;-55
2022/06/17 11:19:04;;;;;;;;;0.00;0.00;;;;;26.51;42.24;101617.38;5105196;27;45285;-50
2022/06/17 11:21:41;;;;;;;;;0.00;0.00;;;;;26.53;42.02;101620.81;5106075;27;45468;-53
2022/06/17 11:24:07;;;;;;;;;0.00;0.00;;;;;26.54;42.04;101618.97;5107962;27;45405;-51
2022/06/17 11:26:35;;;;;;;;;0.75;0.00;;;;;26.53;42.01;101604.69;5093095;27;48262;-54
2022/06/17 11:29:20;;;;;;;;;0.00;0.00;;;;;26.55;42.21;101609.09;5109981;27;45242;-54
2022/06/17 11:31:49;;;;;;;;;0.00;0.00;;;;;26.54;41.87;101602.84;5106118;27;45520;-56
2022/06/17 11:34:17;;;;;;;;;0.00;0.00;;;;;26.56;42.25;101605.41;5097788;27;45635;-56
2022/06/17 11:36:51;;;;;;;;;0.00;0.00;;;;;26.58;42.16;101611.50;5101843;27;45441;-55
2022/06/17 11:39:34;;;;;;;;;3.00;0.00;;;;;26.58;42.13;101603.47;5108316;27;45323;-54
2022/06/17 11:42:13;;;;;;;;;0.50;0.50;;;;;26.59;41.88;101597.97;5102509;27;45782;-52
2022/06/17 11:44:42;;;;;;;;;1.00;0.00;;;;;26.59;41.87;101592.59;5110704;27;45377;-52
2022/06/17 11:47:07;;;;;;;;;1.00;1.00;;;;;26.59;42.02;101591.75;5107361;27;46382;-53
2022/06/17 11:49:34;;;;;;;;;1.00;1.00;;;;;26.60;41.91;101586.25;5112496;27;45495;-52
2022/06/17 11:52:04;;;;;;;;;2.50;1.50;;;;;26.61;42.33;101571.00;5107676;27;45824;-52